Time;durP1;ratioP1;P1;durP2;ratioP2;P2;SDS_P1;SDS_P2;PMS_P1;PMS_P2;Temp;Humidity;BMP_temperature;BMP_pressure;BME280_temperature;BME280_humidity;BME280_pressure;Samples;Min_cycle;Max_cycle;Signal;HPM_P1;HPM_P2
2022/06/02 00:02:25;;;;;;;;;;;9.80;99.90;;;;;;5006889;28;19929;-74
2022/06/02 00:04:54;;;;;;;;;;;9.70;99.90;;;;;;5025205;28;20635;-74
2022/06/02 00:07:32;;;;;;;;;;;9.70;99.90;;;;;;5024251;28;19986;-74
2022/06/02 00:10:10;;;;;;;;;;;9.70;99.90;;;;;;5008802;28;19928;-74
2022/06/02 00:12:36;;;;;;;;;;;9.70;99.90;;;;;;5023697;28;20546;-74
2022/06/02 00:15:06;;;;;;;;;;;9.80;99.90;;;;;;5024640;28;20360;-74
2022/06/02 00:17:44;;;;;;;;;;;9.70;99.90;;;;;;5022944;28;19924;-74
2022/06/02 00:20:14;;;;;;;;;;;9.70;99.90;;;;;;5024196;28;20275;-74
2022/06/02 00:22:48;;;;;;;;;;;9.70;99.90;;;;;;5023512;28;19986;-74
2022/06/02 00:25:26;;;;;;;;;;;9.60;99.90;;;;;;5007277;28;20418;-74
2022/06/02 00:27:55;;;;;;;;;;;9.50;99.90;;;;;;5022799;28;19935;-74
2022/06/02 00:30:44;;;;;;;;;;;9.50;99.90;;;;;;5024081;28;19986;-74
2022/06/02 00:33:21;;;;;;;;;;;9.40;99.90;;;;;;5024348;28;20540;-74
2022/06/02 00:35:53;;;;;;;;;;;9.40;99.90;;;;;;5007310;28;20036;-74
2022/06/02 00:38:21;;;;;;;;;;;9.30;99.90;;;;;;5006920;28;20247;-74
2022/06/02 00:40:47;;;;;;;;;;;9.40;99.90;;;;;;5023712;28;19982;-74
2022/06/02 00:43:25;;;;;;;;;;;9.50;99.90;;;;;;5022378;28;20890;-74
2022/06/02 00:45:56;;;;;;;;;;;9.50;99.90;;;;;;5008684;28;19976;-74
2022/06/02 00:48:28;;;;;;;;;;;9.40;99.90;;;;;;5021451;28;19975;-74
2022/06/02 00:50:57;;;;;;;;;;;9.40;99.90;;;;;;5023254;28;19929;-74
2022/06/02 00:53:39;;;;;;;;;;;9.40;99.90;;;;;;5007089;28;19978;-74
2022/06/02 00:58:58;;;;;;;;;;;9.50;99.90;;;;;;5023838;28;19928;-74
2022/06/02 01:01:28;;;;;;;;;;;9.50;99.90;;;;;;5023849;28;20827;-74
2022/06/02 01:03:55;;;;;;;;;;;9.60;99.90;;;;;;5022531;28;20023;-74
2022/06/02 01:06:23;;;;;;;;;;;9.60;99.90;;;;;;5022966;28;22292;-74
2022/06/02 01:08:55;;;;;;;;;;;9.40;99.90;;;;;;5024815;28;19929;-74
2022/06/02 01:11:29;;;;;;;;;;;9.20;99.90;;;;;;5024664;28;19983;-74
2022/06/02 01:14:17;;;;;;;;;;;9.20;99.90;;;;;;5025571;28;19937;-74
2022/06/02 01:17:00;;;;;;;;;;;9.20;99.90;;;;;;4999079;28;19999;-74
2022/06/02 01:19:26;;;;;;;;;;;9.20;99.90;;;;;;5025956;28;19936;-74
2022/06/02 01:22:15;;;;;;;;;;;9.10;99.90;;;;;;5007584;28;19933;-74
2022/06/02 01:24:55;;;;;;;;;;;9.20;99.90;;;;;;4992595;28;20023;-74
2022/06/02 01:27:38;;;;;;;;;;;8.90;99.90;;;;;;5012600;28;20401;-74
2022/06/02 01:30:20;;;;;;;;;;;8.70;99.90;;;;;;5006098;28;19984;-74
2022/06/02 01:32:57;;;;;;;;;;;8.80;99.90;;;;;;5004284;28;19929;-74
2022/06/02 01:35:25;;;;;;;;;;;8.70;99.90;;;;;;5007559;28;19929;-74
2022/06/02 01:38:02;;;;;;;;;;;8.70;99.90;;;;;;5006492;28;19929;-74
2022/06/02 01:40:57;;;;;;;;;;;8.80;99.90;;;;;;5010483;28;19925;-74
2022/06/02 01:43:28;;;;;;;;;;;8.90;99.90;;;;;;4972059;28;19971;-73
2022/06/02 01:45:56;;;;;;;;;;;8.90;99.90;;;;;;5006042;28;20666;-74
2022/06/02 01:48:41;;;;;;;;;;;8.90;99.90;;;;;;4988195;28;19936;-74
2022/06/02 01:51:09;;;;;;;;;;;8.90;99.90;;;;;;5007562;28;20036;-74
2022/06/02 01:53:42;;;;;;;;;;;8.80;99.90;;;;;;4987845;28;19980;-74
2022/06/02 01:56:08;;;;;;;;;;;8.80;99.90;;;;;;5009171;28;20075;-74
2022/06/02 01:58:53;;;;;;;;;;;8.90;99.90;;;;;;5012435;28;20439;-74
2022/06/02 02:01:41;;;;;;;;;;;8.90;99.90;;;;;;4993860;28;19929;-75
2022/06/02 02:04:09;;;;;;;;;;;8.80;99.90;;;;;;5008363;28;19929;-75
2022/06/02 02:06:35;;;;;;;;;;;8.70;99.90;;;;;;5008997;28;19956;-75
2022/06/02 02:09:01;;;;;;;;;;;8.90;99.90;;;;;;5012690;28;20492;-75
2022/06/02 02:11:32;;;;;;;;;;;9.00;99.90;;;;;;5011377;28;20419;-76
2022/06/02 02:13:58;;;;;;;;;;;9.00;99.90;;;;;;5010499;28;20385;-75
2022/06/02 02:16:39;;;;;;;;;;;9.00;99.90;;;;;;5010269;28;20634;-76
2022/06/02 02:19:14;;;;;;;;;;;9.00;99.90;;;;;;4989547;28;19928;-75
2022/06/02 02:21:46;;;;;;;;;;;9.00;99.90;;;;;;5009356;28;19929;-75
2022/06/02 02:24:14;;;;;;;;;;;9.00;99.90;;;;;;5009426;28;19929;-75
2022/06/02 02:26:44;;;;;;;;;;;9.10;99.90;;;;;;5017173;28;19929;-75
2022/06/02 02:29:28;;;;;;;;;;;8.90;99.90;;;;;;5026275;28;19932;-75
2022/06/02 02:32:00;;;;;;;;;;;8.80;99.90;;;;;;5026848;28;19928;-75
2022/06/02 02:34:28;;;;;;;;;;;8.60;99.90;;;;;;5027796;28;20058;-75
2022/06/02 02:37:02;;;;;;;;;;;8.50;99.90;;;;;;5010859;28;20331;-75
2022/06/02 02:39:36;;;;;;;;;;;8.40;99.90;;;;;;5028042;28;19929;-75
2022/06/02 02:42:02;;;;;;;;;;;8.40;99.90;;;;;;5027323;28;19936;-75
2022/06/02 02:44:44;;;;;;;;;;;8.40;99.90;;;;;;5009457;28;19929;-76
2022/06/02 02:47:21;;;;;;;;;;;8.20;99.90;;;;;;5028125;28;19940;-75
2022/06/02 02:49:47;;;;;;;;;;;8.30;99.90;;;;;;5008967;28;19940;-76
2022/06/02 02:52:12;;;;;;;;;;;8.30;99.90;;;;;;5009955;28;20029;-76
2022/06/02 02:54:44;;;;;;;;;;;8.20;99.90;;;;;;5027418;28;19928;-75
2022/06/02 02:57:26;;;;;;;;;;;8.20;99.90;;;;;;5027310;28;19933;-76
2022/06/02 02:59:58;;;;;;;;;;;8.10;99.90;;;;;;5028801;28;19929;-76
2022/06/02 03:02:24;;;;;;;;;;;8.00;99.90;;;;;;5011174;28;19929;-76
2022/06/02 03:04:53;;;;;;;;;;;8.00;99.90;;;;;;5028593;28;20087;-75
2022/06/02 03:07:19;;;;;;;;;;;7.90;99.90;;;;;;5027104;28;19929;-75
2022/06/02 03:10:14;;;;;;;;;;;7.90;99.90;;;;;;5027763;28;20815;-75
2022/06/02 03:12:51;;;;;;;;;;;7.80;99.90;;;;;;5010155;28;19928;-75
2022/06/02 03:15:20;;;;;;;;;;;7.70;99.90;;;;;;5026220;28;20341;-76
2022/06/02 03:17:49;;;;;;;;;;;7.80;99.90;;;;;;5027363;28;20747;-75
2022/06/02 03:20:17;;;;;;;;;;;7.70;99.90;;;;;;5025528;28;19964;-75
2022/06/02 03:23:02;;;;;;;;;;;7.80;99.90;;;;;;5025059;28;20842;-75
2022/06/02 03:25:28;;;;;;;;;;;7.70;99.90;;;;;;5013399;28;19954;-75
2022/06/02 03:28:03;;;;;;;;;;;7.80;99.90;;;;;;5027752;28;19928;-76
2022/06/02 03:30:33;;;;;;;;;;;8.00;99.90;;;;;;5026788;28;19932;-75
2022/06/02 03:33:08;;;;;;;;;;;8.00;99.90;;;;;;4977330;28;19940;-75
2022/06/02 03:35:52;;;;;;;;;;;8.00;99.90;;;;;;5008546;28;19929;-75
2022/06/02 03:38:41;;;;;;;;;;;7.90;99.90;;;;;;5027675;28;19939;-75
2022/06/02 03:41:07;;;;;;;;;;;7.80;99.90;;;;;;4998139;28;20421;-76
2022/06/02 03:43:39;;;;;;;;;;;8.00;99.90;;;;;;5025954;28;19928;-75
2022/06/02 03:46:23;;;;;;;;;;;8.10;99.90;;;;;;5025599;28;20696;-75
2022/06/02 03:49:07;;;;;;;;;;;8.00;99.90;;;;;;5007942;28;19936;-76
2022/06/02 03:51:48;;;;;;;;;;;8.10;99.90;;;;;;5007527;28;20023;-76
2022/06/02 03:54:25;;;;;;;;;;;8.20;99.90;;;;;;5024691;28;20712;-75
2022/06/02 03:56:54;;;;;;;;;;;8.10;99.90;;;;;;5026327;28;20303;-75
2022/06/02 03:59:29;;;;;;;;;;;8.10;99.90;;;;;;5026702;28;20185;-75
2022/06/02 04:02:11;;;;;;;;;;;8.00;99.90;;;;;;5026482;28;19933;-75
2022/06/02 04:04:45;;;;;;;;;;;8.00;99.90;;;;;;5026632;28;19929;-75
2022/06/02 04:07:22;;;;;;;;;;;8.00;99.90;;;;;;5026852;28;19928;-75
2022/06/02 04:09:58;;;;;;;;;;;8.00;99.90;;;;;;5026649;28;20249;-76
2022/06/02 04:15:30;;;;;;;;;;;8.30;99.90;;;;;;5024894;28;21001;-76
2022/06/02 04:18:01;;;;;;;;;;;8.20;99.90;;;;;;5008621;28;19936;-76
2022/06/02 04:20:35;;;;;;;;;;;8.30;99.90;;;;;;5025505;28;19929;-76
2022/06/02 04:23:21;;;;;;;;;;;8.30;99.90;;;;;;5025690;28;19936;-75
2022/06/02 04:25:54;;;;;;;;;;;8.50;99.90;;;;;;5022744;28;19928;-75
2022/06/02 04:28:40;;;;;;;;;;;8.50;99.90;;;;;;5024073;28;19939;-75
2022/06/02 04:31:06;;;;;;;;;;;8.60;99.90;;;;;;4994460;28;19941;-76
2022/06/02 04:33:42;;;;;;;;;;;8.70;99.90;;;;;;5024418;28;19960;-76
2022/06/02 04:36:16;;;;;;;;;;;8.90;99.90;;;;;;5008450;28;20418;-76
2022/06/02 04:38:49;;;;;;;;;;;8.90;99.90;;;;;;4995674;28;19932;-75
2022/06/02 04:41:22;;;;;;;;;;;9.00;99.90;;;;;;5011280;28;20008;-75
2022/06/02 04:44:04;;;;;;;;;;;9.00;99.90;;;;;;5018791;28;20717;-76
2022/06/02 04:46:39;;;;;;;;;;;10.30;99.90;;;;;;5007253;28;20067;-76
2022/06/02 04:49:24;;;;;;;;;;;12.40;99.90;;;;;;4991890;28;20031;-76
2022/06/02 04:51:50;;;;;;;;;;;14.00;99.90;;;;;;5009196;28;19929;-76
2022/06/02 04:54:45;;;;;;;;;;;15.40;99.90;;;;;;4990346;28;19986;-76
2022/06/02 04:57:10;;;;;;;;;;;16.50;99.90;;;;;;4993267;28;19940;-76
2022/06/02 04:59:55;;;;;;;;;;;17.50;99.90;;;;;;4991834;28;20450;-76
2022/06/02 05:02:20;;;;;;;;;;;18.20;99.90;;;;;;5002185;28;19983;-76
2022/06/02 05:04:46;;;;;;;;;;;18.90;99.90;;;;;;5007254;28;20043;-77
2022/06/02 05:07:17;;;;;;;;;;;19.70;99.90;;;;;;5004401;28;19929;-76
2022/06/02 05:09:52;;;;;;;;;;;20.10;99.90;;;;;;4992773;28;19940;-76
2022/06/02 05:12:32;;;;;;;;;;;20.70;99.90;;;;;;4999333;28;20406;-76
2022/06/02 05:15:07;;;;;;;;;;;21.00;99.90;;;;;;5011854;28;19968;-77
2022/06/02 05:17:58;;;;;;;;;;;21.30;99.90;;;;;;5012891;28;19929;-76
2022/06/02 05:20:42;;;;;;;;;;;21.80;99.90;;;;;;5018052;28;20416;-76
2022/06/02 05:23:08;;;;;;;;;;;22.00;99.90;;;;;;4998434;28;19979;-76
2022/06/02 05:25:49;;;;;;;;;;;22.10;99.90;;;;;;5016979;28;20039;-76
2022/06/02 05:28:27;;;;;;;;;;;22.40;99.90;;;;;;4997650;28;19925;-76
2022/06/02 05:31:02;;;;;;;;;;;22.70;99.90;;;;;;4969424;28;19929;-76
2022/06/02 05:33:37;;;;;;;;;;;22.40;99.90;;;;;;4996110;28;20433;-76
2022/06/02 05:36:10;;;;;;;;;;;22.30;99.90;;;;;;4968979;28;19929;-76
2022/06/02 05:38:59;;;;;;;;;;;22.60;99.90;;;;;;4993816;28;19964;-76
2022/06/02 05:41:24;;;;;;;;;;;22.40;99.90;;;;;;4999222;28;19991;-76
2022/06/02 05:44:10;;;;;;;;;;;22.10;99.90;;;;;;4999487;28;19960;-76
2022/06/02 05:46:44;;;;;;;;;;;20.40;99.90;;;;;;4956147;28;19936;-76
2022/06/02 05:49:21;;;;;;;;;;;19.10;99.90;;;;;;4998064;28;19933;-76
2022/06/02 05:52:22;;;;;;;;;;;18.20;99.90;;;;;;4995438;28;19969;-76
2022/06/02 05:54:52;;;;;;;;;;;17.80;99.90;;;;;;4933199;28;19937;-76
2022/06/02 05:57:36;;;;;;;;;;;17.80;99.90;;;;;;5007262;28;20442;-76
2022/06/02 06:00:20;;;;;;;;;;;18.10;99.90;;;;;;5002562;28;19929;-76
2022/06/02 06:02:46;;;;;;;;;;;17.90;99.90;;;;;;4985954;28;20054;-76
2022/06/02 06:05:23;;;;;;;;;;;18.10;99.90;;;;;;5011266;28;20016;-75
2022/06/02 06:08:11;;;;;;;;;;;17.90;99.90;;;;;;4994570;28;20784;-76
2022/06/02 06:10:55;;;;;;;;;;;18.30;99.90;;;;;;5004447;28;20748;-76
2022/06/02 06:13:21;;;;;;;;;;;18.00;99.90;;;;;;5008140;28;20375;-76
2022/06/02 06:16:05;;;;;;;;;;;17.50;99.90;;;;;;4993363;28;19929;-76
2022/06/02 06:18:43;;;;;;;;;;;17.40;99.90;;;;;;5009497;28;20434;-76
2022/06/02 06:21:09;;;;;;;;;;;17.50;99.90;;;;;;4991762;28;19925;-76
2022/06/02 06:23:34;;;;;;;;;;;17.70;99.90;;;;;;5008083;28;20097;-76
2022/06/02 06:26:05;;;;;;;;;;;17.70;99.90;;;;;;5012672;28;19933;-76
2022/06/02 06:28:36;;;;;;;;;;;17.90;99.90;;;;;;5013806;28;19937;-76
2022/06/02 06:31:06;;;;;;;;;;;17.90;99.90;;;;;;5020119;28;20038;-74
2022/06/02 06:33:51;;;;;;;;;;;17.90;99.90;;;;;;5029215;28;19964;-76
2022/06/02 06:36:32;;;;;;;;;;;17.70;99.90;;;;;;5028106;28;20272;-76
2022/06/02 06:39:07;;;;;;;;;;;17.90;99.90;;;;;;5029814;28;20398;-76
2022/06/02 06:41:36;;;;;;;;;;;17.90;99.90;;;;;;5013109;28;19929;-76
2022/06/02 06:44:14;;;;;;;;;;;17.90;99.90;;;;;;5013910;28;19929;-76
2022/06/02 06:46:48;;;;;;;;;;;17.90;99.90;;;;;;5031193;28;20590;-76
2022/06/02 06:49:21;;;;;;;;;;;17.90;99.90;;;;;;5033088;28;19936;-76
2022/06/02 06:51:46;;;;;;;;;;;18.10;99.90;;;;;;5032372;28;19929;-76
2022/06/02 06:54:31;;;;;;;;;;;17.80;99.90;;;;;;5033793;28;19940;-77
2022/06/02 06:57:09;;;;;;;;;;;18.10;99.90;;;;;;5015879;28;19990;-76
2022/06/02 06:59:34;;;;;;;;;;;18.00;99.90;;;;;;5013134;28;19935;-76
2022/06/02 07:02:18;;;;;;;;;;;17.90;99.90;;;;;;5031038;28;19939;-76
2022/06/02 07:04:47;;;;;;;;;;;17.80;99.90;;;;;;5030337;28;19936;-76
2022/06/02 07:07:20;;;;;;;;;;;17.90;99.90;;;;;;5031015;28;20393;-76
2022/06/02 07:09:48;;;;;;;;;;;17.90;99.90;;;;;;5011919;28;20023;-77
2022/06/02 07:15:16;;;;;;;;;;;17.90;99.90;;;;;;5030324;28;19952;-77
2022/06/02 07:18:00;;;;;;;;;;;17.30;99.90;;;;;;5027675;28;20055;-77
2022/06/02 07:20:45;;;;;;;;;;;16.80;99.90;;;;;;5029183;28;19933;-76
2022/06/02 07:23:18;;;;;;;;;;;16.80;99.90;;;;;;5012711;28;19929;-77
2022/06/02 07:25:51;;;;;;;;;;;17.10;99.90;;;;;;5029913;28;19933;-77
2022/06/02 07:28:19;;;;;;;;;;;17.00;99.90;;;;;;5011006;28;19979;-76
2022/06/02 07:30:57;;;;;;;;;;;16.70;99.90;;;;;;4992263;28;19976;-77
2022/06/02 07:33:30;;;;;;;;;;;16.50;99.90;;;;;;5011546;28;19933;-78
2022/06/02 07:36:02;;;;;;;;;;;16.40;99.90;;;;;;5009650;28;19929;-77
2022/06/02 07:38:36;;;;;;;;;;;16.40;99.90;;;;;;4993318;28;19976;-76
2022/06/02 07:41:15;;;;;;;;;;;16.50;99.90;;;;;;5009588;28;19929;-77
2022/06/02 07:43:48;;;;;;;;;;;16.70;99.90;;;;;;5008689;28;20036;-76
2022/06/02 07:46:26;;;;;;;;;;;16.70;99.90;;;;;;5009120;28;20428;-76
2022/06/02 07:48:51;;;;;;;;;;;17.10;99.90;;;;;;4992621;28;19929;-76
2022/06/02 07:51:22;;;;;;;;;;;16.70;99.90;;;;;;5007628;28;19936;-76
2022/06/02 07:54:00;;;;;;;;;;;17.30;99.90;;;;;;4991069;28;20456;-76
2022/06/02 07:56:26;;;;;;;;;;;17.50;99.90;;;;;;5011300;28;20019;-76
2022/06/02 07:58:52;;;;;;;;;;;17.40;99.90;;;;;;5008989;28;19994;-78
2022/06/02 08:01:17;;;;;;;;;;;17.60;99.90;;;;;;4992565;28;20651;-78
2022/06/02 08:03:44;;;;;;;;;;;17.40;99.90;;;;;;5005778;28;20390;-77
2022/06/02 08:06:35;;;;;;;;;;;18.00;99.90;;;;;;4957082;28;19933;-78
2022/06/02 08:09:24;;;;;;;;;;;18.10;99.90;;;;;;5003717;28;19940;-78
2022/06/02 08:11:51;;;;;;;;;;;18.40;99.90;;;;;;4976239;28;20030;-78
2022/06/02 08:14:31;;;;;;;;;;;17.90;99.90;;;;;;5009414;28;20193;-78
2022/06/02 08:17:01;;;;;;;;;;;17.30;99.90;;;;;;5011247;28;19929;-77
2022/06/02 08:19:35;;;;;;;;;;;17.90;99.90;;;;;;5010715;28;19972;-78
2022/06/02 08:22:03;;;;;;;;;;;18.40;99.90;;;;;;4992850;28;19929;-77
2022/06/02 08:24:50;;;;;;;;;;;18.40;99.90;;;;;;4990852;28;19983;-79
2022/06/02 08:27:40;;;;;;;;;;;17.30;99.90;;;;;;5019349;28;20020;-77
2022/06/02 08:30:13;;;;;;;;;;;17.50;99.90;;;;;;5012175;28;20390;-77
2022/06/02 08:32:51;;;;;;;;;;;18.20;99.90;;;;;;5031483;28;20188;-76
2022/06/02 08:35:27;;;;;;;;;;;19.00;99.90;;;;;;5031416;28;19936;-77
2022/06/02 08:37:59;;;;;;;;;;;18.80;99.90;;;;;;5028919;28;19984;-76
2022/06/02 08:40:43;;;;;;;;;;;18.20;99.90;;;;;;5011221;28;19928;-77
2022/06/02 08:43:21;;;;;;;;;;;17.60;99.90;;;;;;5024204;28;19928;-77
2022/06/02 08:45:52;;;;;;;;;;;17.50;99.90;;;;;;5026995;28;19958;-78
2022/06/02 08:48:24;;;;;;;;;;;17.50;99.90;;;;;;5010994;28;20686;-78
2022/06/02 08:51:08;;;;;;;;;;;18.00;99.90;;;;;;5027075;28;19929;-77
2022/06/02 08:53:43;;;;;;;;;;;17.40;99.90;;;;;;4992873;28;20027;-78
2022/06/02 08:56:13;;;;;;;;;;;17.40;99.90;;;;;;5029128;28;19929;-78
2022/06/02 08:58:54;;;;;;;;;;;17.30;99.90;;;;;;5009870;28;19930;-78
2022/06/02 09:01:38;;;;;;;;;;;17.80;99.90;;;;;;5010448;28;20663;-78
2022/06/02 09:04:07;;;;;;;;;;;18.20;99.90;;;;;;5010558;28;19931;-79
2022/06/02 09:06:33;;;;;;;;;;;19.00;99.90;;;;;;5029143;28;20038;-78
2022/06/02 09:09:27;;;;;;;;;;;19.50;99.90;;;;;;5026699;28;20460;-76
2022/06/02 09:11:55;;;;;;;;;;;19.40;99.90;;;;;;5028061;28;20398;-77
2022/06/02 09:14:24;;;;;;;;;;;19.00;99.90;;;;;;5029496;28;20969;-77
2022/06/02 09:16:57;;;;;;;;;;;18.90;99.90;;;;;;5009173;28;19963;-77
2022/06/02 09:19:25;;;;;;;;;;;19.10;99.90;;;;;;5026673;28;19955;-77
2022/06/02 09:21:50;;;;;;;;;;;18.40;99.90;;;;;;5027194;28;19933;-76
2022/06/02 09:24:32;;;;;;;;;;;18.00;99.90;;;;;;5009689;28;19974;-75
2022/06/02 09:27:16;;;;;;;;;;;18.00;99.90;;;;;;5027928;28;19932;-76
2022/06/02 09:29:48;;;;;;;;;;;18.10;99.90;;;;;;5026866;28;19929;-77
2022/06/02 09:32:32;;;;;;;;;;;18.50;99.90;;;;;;5026842;28;19935;-78
2022/06/02 09:35:02;;;;;;;;;;;19.50;99.90;;;;;;5026792;28;20382;-76
2022/06/02 09:37:47;;;;;;;;;;;20.00;99.90;;;;;;5009703;28;19928;-77
2022/06/02 09:40:19;;;;;;;;;;;20.40;99.90;;;;;;5027957;28;20501;-77
2022/06/02 09:43:04;;;;;;;;;;;20.10;99.90;;;;;;5008777;28;20393;-76
2022/06/02 09:45:29;;;;;;;;;;;19.60;99.90;;;;;;5010224;28;20038;-76
2022/06/02 09:48:14;;;;;;;;;;;19.30;99.90;;;;;;5009224;28;20091;-76
2022/06/02 09:50:43;;;;;;;;;;;19.00;99.90;;;;;;5009240;28;19935;-77
2022/06/02 09:53:15;;;;;;;;;;;19.70;99.90;;;;;;4997300;28;19929;-79
2022/06/02 09:55:59;;;;;;;;;;;20.10;99.90;;;;;;5009660;28;19976;-78
2022/06/02 09:58:27;;;;;;;;;;;20.00;99.90;;;;;;5026851;28;20624;-77
2022/06/02 10:01:10;;;;;;;;;;;20.30;99.90;;;;;;5025076;28;19964;-78
2022/06/02 10:03:36;;;;;;;;;;;20.60;99.90;;;;;;5029125;28;19929;-77
2022/06/02 10:06:02;;;;;;;;;;;21.00;99.90;;;;;;5008346;28;19935;-77
2022/06/02 10:08:46;;;;;;;;;;;21.20;99.90;;;;;;5028083;28;19929;-77
2022/06/02 10:11:30;;;;;;;;;;;20.90;99.90;;;;;;5027384;28;19944;-79
2022/06/02 10:14:01;;;;;;;;;;;20.80;99.90;;;;;;5027966;28;20542;-77
2022/06/02 10:16:27;;;;;;;;;;;20.60;99.90;;;;;;5032350;28;19929;-77
2022/06/02 10:18:53;;;;;;;;;;;20.00;99.90;;;;;;5032190;28;20382;-77
2022/06/02 10:21:38;;;;;;;;;;;20.00;99.90;;;;;;5020666;28;20452;-77
2022/06/02 10:24:15;;;;;;;;;;;20.00;99.90;;;;;;5028645;28;20701;-78
2022/06/02 10:26:46;;;;;;;;;;;20.70;99.90;;;;;;5025689;28;20095;-77
2022/06/02 10:29:24;;;;;;;;;;;21.00;99.90;;;;;;4996747;28;19941;-76
2022/06/02 10:32:02;;;;;;;;;;;20.20;99.90;;;;;;5015231;28;19937;-77
2022/06/02 10:34:43;;;;;;;;;;;20.30;99.90;;;;;;5014406;28;19929;-76
2022/06/02 10:37:33;;;;;;;;;;;19.40;99.90;;;;;;4996336;28;19929;-76
2022/06/02 10:39:58;;;;;;;;;;;19.10;99.90;;;;;;5005174;28;19936;-76
2022/06/02 10:42:43;;;;;;;;;;;19.50;99.90;;;;;;4996652;28;20449;-76
2022/06/02 10:45:19;;;;;;;;;;;20.10;99.90;;;;;;5012724;28;19929;-79
2022/06/02 10:48:04;;;;;;;;;;;20.70;99.90;;;;;;4992132;28;19929;-77
2022/06/02 10:50:48;;;;;;;;;;;20.90;99.90;;;;;;4994649;28;19933;-77
2022/06/02 10:53:15;;;;;;;;;;;21.30;99.90;;;;;;4995379;28;20011;-78
2022/06/02 10:55:59;;;;;;;;;;;21.60;99.90;;;;;;5012771;28;19956;-77
2022/06/02 10:58:28;;;;;;;;;;;21.70;99.90;;;;;;5011367;28;19929;-77
2022/06/02 11:00:56;;;;;;;;;;;22.10;99.90;;;;;;5011177;28;20615;-77
2022/06/02 11:03:22;;;;;;;;;;;22.30;99.90;;;;;;4994793;28;19940;-77
2022/06/02 11:06:06;;;;;;;;;;;22.20;99.90;;;;;;5010646;28;20271;-78
2022/06/02 11:08:51;;;;;;;;;;;22.30;99.90;;;;;;4992513;28;19929;-77
2022/06/02 11:11:26;;;;;;;;;;;22.20;99.90;;;;;;5010806;28;20053;-78
2022/06/02 11:13:58;;;;;;;;;;;22.30;99.90;;;;;;5012935;28;19929;-77
2022/06/02 11:16:30;;;;;;;;;;;22.10;99.90;;;;;;5013692;28;19933;-76
2022/06/02 11:19:16;;;;;;;;;;;22.20;99.90;;;;;;4995832;28;19936;-77
2022/06/02 11:22:05;;;;;;;;;;;22.50;99.90;;;;;;4970994;28;20080;-79
2022/06/02 11:24:34;;;;;;;;;;;22.30;99.90;;;;;;5009614;28;19933;-79
2022/06/02 11:27:12;;;;;;;;;;;22.30;99.90;;;;;;5008302;28;20020;-77
2022/06/02 11:29:37;;;;;;;;;;;22.40;99.90;;;;;;5007782;28;19929;-78
2022/06/02 11:32:06;;;;;;;;;;;21.00;99.90;;;;;;5009260;28;19955;-77
2022/06/02 11:34:35;;;;;;;;;;;21.40;99.90;;;;;;4993769;28;19936;-77
2022/06/02 11:37:19;;;;;;;;;;;21.00;99.90;;;;;;5009822;28;19933;-78
2022/06/02 11:39:54;;;;;;;;;;;21.90;99.90;;;;;;5007920;28;19929;-77
2022/06/02 11:42:31;;;;;;;;;;;21.70;99.90;;;;;;5010159;28;20021;-79
2022/06/02 11:44:57;;;;;;;;;;;22.30;99.90;;;;;;5011515;28;19929;-78
2022/06/02 11:47:42;;;;;;;;;;;22.70;99.90;;;;;;5008175;28;19928;-78
2022/06/02 11:50:26;;;;;;;;;;;23.00;99.90;;;;;;5008919;28;19983;-78
2022/06/02 11:52:58;;;;;;;;;;;23.10;99.90;;;;;;4963770;28;19929;-79
2022/06/02 11:55:28;;;;;;;;;;;22.90;99.90;;;;;;5010835;28;19929;-78
2022/06/02 11:58:07;;;;;;;;;;;23.10;99.90;;;;;;4988973;28;19944;-78
2022/06/02 12:00:41;;;;;;;;;;;23.40;99.90;;;;;;5011231;28;19929;-78
2022/06/02 12:03:26;;;;;;;;;;;23.30;99.90;;;;;;4993071;28;19940;-77
2022/06/02 12:05:51;;;;;;;;;;;23.20;96.50;;;;;;4991942;28;19929;-78
2022/06/02 12:08:37;;;;;;;;;;;22.50;97.90;;;;;;5008806;28;19961;-78
2022/06/02 12:11:08;;;;;;;;;;;21.70;96.10;;;;;;5009939;28;20406;-77
2022/06/02 12:13:49;;;;;;;;;;;21.20;99.70;;;;;;4991043;28;19929;-78
2022/06/02 12:16:18;;;;;;;;;;;21.70;99.90;;;;;;5010242;28;20389;-78
2022/06/02 12:18:50;;;;;;;;;;;21.90;96.50;;;;;;5008683;28;19929;-79
2022/06/02 12:21:15;;;;;;;;;;;21.90;97.60;;;;;;4992917;28;19944;-77
2022/06/02 12:23:59;;;;;;;;;;;22.40;99.90;;;;;;5008441;28;20360;-77
2022/06/02 12:26:44;;;;;;;;;;;22.40;99.90;;;;;;5013182;28;19979;-78
2022/06/02 12:29:28;;;;;;;;;;;22.00;99.90;;;;;;5011027;28;19929;-78
2022/06/02 12:31:59;;;;;;;;;;;21.50;99.90;;;;;;5012428;28;20386;-78
2022/06/02 12:34:34;;;;;;;;;;;21.10;99.90;;;;;;5012087;28;19928;-79
2022/06/02 12:37:06;;;;;;;;;;;21.30;99.90;;;;;;5028085;28;19928;-78
2022/06/02 12:39:50;;;;;;;;;;;22.10;99.90;;;;;;4993712;28;19940;-78
2022/06/02 12:42:35;;;;;;;;;;;21.50;99.00;;;;;;5012452;28;19928;-78
2022/06/02 12:45:06;;;;;;;;;;;21.90;99.90;;;;;;5027270;28;20002;-78
2022/06/02 12:47:32;;;;;;;;;;;20.90;99.90;;;;;;5010176;28;19935;-78
2022/06/02 12:50:09;;;;;;;;;;;21.20;99.90;;;;;;4982331;28;20373;-79
2022/06/02 12:52:53;;;;;;;;;;;21.10;99.90;;;;;;5027991;28;19929;-78
2022/06/02 12:55:22;;;;;;;;;;;20.40;98.70;;;;;;5011265;28;19929;-78
2022/06/02 12:57:59;;;;;;;;;;;20.70;99.90;;;;;;5027075;28;20071;-78
2022/06/02 13:00:44;;;;;;;;;;;21.70;99.90;;;;;;5028338;28;20298;-78
2022/06/02 13:03:28;;;;;;;;;;;22.00;99.90;;;;;;5027293;28;19940;-78
2022/06/02 13:06:03;;;;;;;;;;;22.50;99.90;;;;;;5010422;28;19928;-77
2022/06/02 13:08:47;;;;;;;;;;;23.00;99.90;;;;;;5027229;28;19948;-78
2022/06/02 13:11:32;;;;;;;;;;;23.40;99.90;;;;;;4995516;28;19928;-79
2022/06/02 13:14:31;;;;;;;;;;;23.40;98.50;;;;;;5009769;28;19940;-78
2022/06/02 13:17:02;;;;;;;;;;;23.70;97.70;;;;;;4964611;28;19995;-78
2022/06/02 13:19:37;;;;;;;;;;;24.10;99.90;;;;;;5010789;28;20405;-77
2022/06/02 13:22:18;;;;;;;;;;;24.20;98.00;;;;;;5027521;28;19938;-78
2022/06/02 13:24:53;;;;;;;;;;;23.00;98.20;;;;;;5027426;28;19943;-77
2022/06/02 13:27:30;;;;;;;;;;;22.40;99.30;;;;;;5010025;28;19976;-78
2022/06/02 13:30:03;;;;;;;;;;;22.20;99.80;;;;;;5010231;28;19929;-77
2022/06/02 13:32:47;;;;;;;;;;;23.00;99.40;;;;;;5028198;28;20344;-77
2022/06/02 13:35:19;;;;;;;;;;;23.00;99.00;;;;;;5010336;28;19976;-77
2022/06/02 13:37:57;;;;;;;;;;;23.40;98.40;;;;;;5021579;28;19929;-78
2022/06/02 13:40:47;;;;;;;;;;;23.40;98.30;;;;;;5005483;28;19928;-77
2022/06/02 13:43:48;;;;;;;;;;;23.60;99.90;;;;;;4997630;28;19935;-78
2022/06/02 13:46:40;;;;;;;;;;;23.80;98.20;;;;;;4958062;28;20474;-79
2022/06/02 13:49:24;;;;;;;;;;;23.90;98.90;;;;;;5015473;28;20070;-77
2022/06/02 13:52:02;;;;;;;;;;;24.10;99.20;;;;;;5017712;28;20456;-79
2022/06/02 13:57:30;;;;;;;;;;;23.90;95.80;;;;;;5016074;28;19975;-77
2022/06/02 14:00:10;;;;;;;;;;;24.20;99.90;;;;;;4998559;28;19929;-78
2022/06/02 14:02:54;;;;;;;;;;;24.40;95.80;;;;;;5000308;28;19929;-79
2022/06/02 14:05:32;;;;;;;;;;;24.20;97.50;;;;;;4995783;28;20031;-76
2022/06/02 14:08:16;;;;;;;;;;;24.50;96.10;;;;;;4998745;28;19929;-78
2022/06/02 14:10:45;;;;;;;;;;;24.10;99.70;;;;;;5002673;28;19928;-78
2022/06/02 14:13:29;;;;;;;;;;;24.50;98.80;;;;;;4984172;28;19933;-78
2022/06/02 14:16:01;;;;;;;;;;;24.50;99.00;;;;;;5009642;28;21377;-78
2022/06/02 14:18:36;;;;;;;;;;;24.50;97.30;;;;;;4960953;28;21078;-79
2022/06/02 14:21:11;;;;;;;;;;;24.70;94.60;;;;;;4994904;28;19929;-77
2022/06/02 14:23:56;;;;;;;;;;;24.60;96.10;;;;;;4991668;28;20008;-78
2022/06/02 14:26:21;;;;;;;;;;;24.80;92.40;;;;;;5010530;28;21930;-78
2022/06/02 14:28:47;;;;;;;;;;;24.60;95.20;;;;;;5011260;28;19928;-79
2022/06/02 14:31:29;;;;;;;;;;;24.80;95.20;;;;;;4982127;28;19935;-80
2022/06/02 14:34:02;;;;;;;;;;;24.90;93.60;;;;;;4996509;28;20374;-79
2022/06/02 14:36:30;;;;;;;;;;;24.90;94.00;;;;;;4999310;28;20369;-78
2022/06/02 14:39:15;;;;;;;;;;;24.80;97.20;;;;;;4993883;28;19936;-81
2022/06/02 14:41:47;;;;;;;;;;;24.90;93.90;;;;;;5009648;28;20298;-79
2022/06/02 14:44:21;;;;;;;;;;;24.80;94.10;;;;;;5012077;28;20007;-78
2022/06/02 14:46:47;;;;;;;;;;;24.40;86.80;;;;;;4989790;28;20027;-78
2022/06/02 14:49:15;;;;;;;;;;;24.50;93.90;;;;;;5011302;28;20386;-79
2022/06/02 14:51:44;;;;;;;;;;;24.70;88.20;;;;;;4988430;28;19971;-78
2022/06/02 14:54:28;;;;;;;;;;;24.70;93.50;;;;;;5011097;28;20470;-78
2022/06/02 14:57:03;;;;;;;;;;;24.70;95.30;;;;;;5011255;28;19943;-78
2022/06/02 14:59:31;;;;;;;;;;;24.60;92.70;;;;;;5010221;28;19929;-78
2022/06/02 15:02:06;;;;;;;;;;;24.00;90.10;;;;;;5006417;28;19939;-78
2022/06/02 15:04:51;;;;;;;;;;;23.70;92.80;;;;;;4994846;28;20452;-79
2022/06/02 15:07:37;;;;;;;;;;;23.20;95.30;;;;;;4994570;28;19929;-78
2022/06/02 15:10:24;;;;;;;;;;;23.70;95.70;;;;;;4945678;28;20039;-78
2022/06/02 15:12:52;;;;;;;;;;;23.40;94.40;;;;;;5009124;28;19940;-78
2022/06/02 15:15:21;;;;;;;;;;;23.50;91.00;;;;;;5007446;28;19935;-78
2022/06/02 15:17:52;;;;;;;;;;;23.80;90.30;;;;;;5004141;28;19936;-79
2022/06/02 15:20:37;;;;;;;;;;;22.80;89.00;;;;;;4996373;28;20305;-77
2022/06/02 15:23:08;;;;;;;;;;;23.40;94.10;;;;;;4993629;28;20426;-78